Time;durP1;ratioP1;P1;durP2;ratioP2;P2;SDS_P1;SDS_P2;PMS_P1;PMS_P2;Temp;Humidity;BMP_temperature;BMP_pressure;BME280_temperature;BME280_humidity;BME280_pressure;Samples;Min_cycle;Max_cycle;Signal;HPM_P1;HPM_P2
2022/07/03 00:02:00;;;;;;;8.63;5.27;;;;;;;;;;4994831;28;20200;-41
2022/07/03 00:04:27;;;;;;;9.73;5.00;;;;;;;;;;4992080;28;20978;-41
2022/07/03 00:06:54;;;;;;;11.80;5.23;;;;;;;;;;4994331;28;21162;-40
2022/07/03 00:09:20;;;;;;;12.73;5.20;;;;;;;;;;4992719;28;20964;-40
2022/07/03 00:11:46;;;;;;;11.13;4.80;;;;;;;;;;4994691;28;20188;-40
2022/07/03 00:14:13;;;;;;;12.20;5.40;;;;;;;;;;4995273;28;20185;-41
2022/07/03 00:16:39;;;;;;;12.00;5.57;;;;;;;;;;4995787;28;20188;-41
2022/07/03 00:19:05;;;;;;;9.67;4.97;;;;;;;;;;4996827;28;20663;-41
2022/07/03 00:21:51;;;;;;;8.67;4.50;;;;;;;;;;4989772;28;20184;-41
2022/07/03 00:24:20;;;;;;;8.63;5.47;;;;;;;;;;4994424;28;20193;-41
2022/07/03 00:26:50;;;;;;;6.23;4.47;;;;;;;;;;4993078;28;20176;-40
2022/07/03 00:29:16;;;;;;;16.47;5.50;;;;;;;;;;4997513;28;20173;-40
2022/07/03 00:31:43;;;;;;;14.40;5.63;;;;;;;;;;4994126;28;20227;-41
2022/07/03 00:34:12;;;;;;;10.27;4.90;;;;;;;;;;4992014;28;20184;-39
2022/07/03 00:36:38;;;;;;;9.27;4.73;;;;;;;;;;4996551;28;21026;-41
2022/07/03 00:39:05;;;;;;;9.40;5.70;;;;;;;;;;4988164;28;20280;-41
2022/07/03 00:41:34;;;;;;;7.03;4.97;;;;;;;;;;4994759;28;20406;-41
2022/07/03 00:44:00;;;;;;;7.23;5.43;;;;;;;;;;4997320;28;20192;-40
2022/07/03 00:46:27;;;;;;;8.70;5.10;;;;;;;;;;4991730;28;20277;-40
2022/07/03 00:48:54;;;;;;;7.33;5.10;;;;;;;;;;4993568;28;20196;-41
2022/07/03 00:51:24;;;;;;;10.27;5.73;;;;;;;;;;4995385;28;20196;-41
2022/07/03 00:53:51;;;;;;;10.00;5.50;;;;;;;;;;4990240;28;20184;-40
2022/07/03 00:56:19;;;;;;;6.97;5.10;;;;;;;;;;4991973;28;20172;-39
2022/07/03 00:58:45;;;;;;;10.80;5.60;;;;;;;;;;4997427;28;20232;-41
2022/07/03 01:01:12;;;;;;;9.97;5.40;;;;;;;;;;4996165;28;21243;-41
2022/07/03 01:03:40;;;;;;;10.47;5.17;;;;;;;;;;4991816;28;20200;-41
2022/07/03 01:06:13;;;;;;;10.13;5.23;;;;;;;;;;4993815;28;20298;-41
2022/07/03 01:08:44;;;;;;;8.40;5.30;;;;;;;;;;4997004;28;21036;-40
2022/07/03 01:11:29;;;;;;;7.47;4.93;;;;;;;;;;4994793;28;20165;-41
2022/07/03 01:13:58;;;;;;;7.30;4.77;;;;;;;;;;4987137;28;20191;-41
2022/07/03 01:16:27;;;;;;;10.17;5.30;;;;;;;;;;4993160;28;21160;-40
2022/07/03 01:18:55;;;;;;;8.50;4.47;;;;;;;;;;4991707;28;20192;-40
2022/07/03 01:21:31;;;;;;;7.70;4.63;;;;;;;;;;4991092;28;20212;-41
2022/07/03 01:24:05;;;;;;;12.83;5.17;;;;;;;;;;4990712;28;20224;-41
2022/07/03 01:26:32;;;;;;;8.90;5.00;;;;;;;;;;4994550;28;20169;-40
2022/07/03 01:29:03;;;;;;;9.80;5.13;;;;;;;;;;4992894;28;20280;-41
2022/07/03 01:31:30;;;;;;;9.77;4.97;;;;;;;;;;4994794;28;20818;-41
2022/07/03 01:33:57;;;;;;;10.20;5.73;;;;;;;;;;4994083;28;20877;-41
2022/07/03 01:36:25;;;;;;;11.27;5.17;;;;;;;;;;4994359;28;20208;-41
2022/07/03 01:38:51;;;;;;;13.60;5.67;;;;;;;;;;4994327;28;20192;-40
2022/07/03 01:41:17;;;;;;;9.37;5.10;;;;;;;;;;4990656;28;21043;-40
2022/07/03 01:43:50;;;;;;;10.03;4.83;;;;;;;;;;4994904;28;21078;-40
2022/07/03 01:46:21;;;;;;;9.77;4.80;;;;;;;;;;4989383;28;20263;-41
2022/07/03 01:48:48;;;;;;;12.00;5.07;;;;;;;;;;4990328;28;20177;-41
2022/07/03 01:51:14;;;;;;;10.17;5.07;;;;;;;;;;4989027;28;20180;-39
2022/07/03 01:53:44;;;;;;;9.47;5.37;;;;;;;;;;4991857;28;20826;-41
2022/07/03 01:56:10;;;;;;;7.03;5.30;;;;;;;;;;4988789;28;20188;-41
2022/07/03 01:58:36;;;;;;;9.10;4.73;;;;;;;;;;4991788;28;20176;-39
2022/07/03 02:01:03;;;;;;;8.07;4.80;;;;;;;;;;4992221;28;20594;-41
2022/07/03 02:03:33;;;;;;;12.07;5.40;;;;;;;;;;4993054;28;20220;-41
2022/07/03 02:06:03;;;;;;;9.57;5.30;;;;;;;;;;4985116;28;20181;-41
2022/07/03 02:08:38;;;;;;;8.33;4.50;;;;;;;;;;4991663;28;20724;-41
2022/07/03 02:11:10;;;;;;;7.83;5.00;;;;;;;;;;4990795;28;20180;-41
2022/07/03 02:13:39;;;;;;;8.77;4.93;;;;;;;;;;4989575;28;20189;-41
2022/07/03 02:16:07;;;;;;;10.00;5.63;;;;;;;;;;4988871;28;21094;-40
2022/07/03 02:18:36;;;;;;;9.03;5.50;;;;;;;;;;4994263;28;20177;-40
2022/07/03 02:21:05;;;;;;;10.67;5.27;;;;;;;;;;4990544;28;20188;-41
2022/07/03 02:23:33;;;;;;;9.67;5.37;;;;;;;;;;4986853;28;20201;-41
2022/07/03 02:26:01;;;;;;;7.67;4.80;;;;;;;;;;4986564;28;20303;-41
2022/07/03 02:28:35;;;;;;;9.20;5.17;;;;;;;;;;4990208;28;20181;-41
2022/07/03 02:31:05;;;;;;;7.63;4.60;;;;;;;;;;4988301;28;20183;-40
2022/07/03 02:33:31;;;;;;;11.10;5.30;;;;;;;;;;4994346;28;20660;-41
2022/07/03 02:35:58;;;;;;;8.60;4.50;;;;;;;;;;4994185;28;20187;-41
2022/07/03 02:38:26;;;;;;;12.47;5.37;;;;;;;;;;4989647;28;20184;-41
2022/07/03 02:40:58;;;;;;;7.27;4.77;;;;;;;;;;4991467;28;20875;-41
2022/07/03 02:43:38;;;;;;;7.37;4.60;;;;;;;;;;4990784;28;20197;-41
2022/07/03 02:49:07;;;;;;;7.77;5.20;;;;;;;;;;4992947;28;20219;-41
2022/07/03 02:51:36;;;;;;;7.53;4.40;;;;;;;;;;4988644;28;20199;-41
2022/07/03 02:54:10;;;;;;;10.70;5.07;;;;;;;;;;4982139;28;20999;-40
2022/07/03 02:56:43;;;;;;;10.47;4.80;;;;;;;;;;4991234;28;20332;-40
2022/07/03 02:59:19;;;;;;;9.97;5.27;;;;;;;;;;4992314;28;20319;-40
2022/07/03 03:02:06;;;;;;;8.67;4.87;;;;;;;;;;4989675;28;20677;-41
2022/07/03 03:04:33;;;;;;;6.67;4.33;;;;;;;;;;4987042;28;20469;-41
2022/07/03 03:07:03;;;;;;;7.80;5.27;;;;;;;;;;4991727;28;20191;-41
2022/07/03 03:09:49;;;;;;;7.37;4.83;;;;;;;;;;4993508;28;20172;-40
2022/07/03 03:12:15;;;;;;;6.93;4.77;;;;;;;;;;4988638;28;20180;-40
2022/07/03 03:14:43;;;;;;;9.43;5.03;;;;;;;;;;4991621;28;20180;-41
2022/07/03 03:17:10;;;;;;;6.97;4.80;;;;;;;;;;4992671;28;20387;-41
2022/07/03 03:19:46;;;;;;;7.30;5.00;;;;;;;;;;4991490;28;20648;-41
2022/07/03 03:22:24;;;;;;;9.13;5.10;;;;;;;;;;4994950;28;20886;-41
2022/07/03 03:24:51;;;;;;;10.20;4.60;;;;;;;;;;4996997;28;20200;-40
2022/07/03 03:27:18;;;;;;;8.67;5.60;;;;;;;;;;4993932;28;20204;-41
2022/07/03 03:29:44;;;;;;;7.80;4.70;;;;;;;;;;4992853;28;20176;-41
2022/07/03 03:32:10;;;;;;;9.10;4.80;;;;;;;;;;4998038;28;20164;-41
2022/07/03 03:34:37;;;;;;;9.07;4.43;;;;;;;;;;4997422;28;20674;-40
2022/07/03 03:37:03;;;;;;;7.93;4.93;;;;;;;;;;4998084;28;20695;-39
2022/07/03 03:39:29;;;;;;;9.57;5.20;;;;;;;;;;4996491;28;20578;-41
2022/07/03 03:41:56;;;;;;;6.50;4.20;;;;;;;;;;4996470;28;20254;-41
2022/07/03 03:44:22;;;;;;;8.03;4.70;;;;;;;;;;4997662;28;20527;-43
2022/07/03 03:46:50;;;;;;;7.20;4.83;;;;;;;;;;4994652;28;20612;-43
2022/07/03 03:49:16;;;;;;;7.93;4.63;;;;;;;;;;4995392;28;20173;-43
2022/07/03 03:51:42;;;;;;;8.93;4.73;;;;;;;;;;4996462;28;20177;-43
2022/07/03 03:54:08;;;;;;;11.63;4.80;;;;;;;;;;4998053;28;20297;-43
2022/07/03 03:56:34;;;;;;;10.70;5.10;;;;;;;;;;4995455;28;20201;-41
2022/07/03 03:59:00;;;;;;;9.43;4.90;;;;;;;;;;4998488;28;20191;-42
2022/07/03 04:01:26;;;;;;;9.17;5.73;;;;;;;;;;4998126;28;20217;-44
2022/07/03 04:03:52;;;;;;;10.10;4.70;;;;;;;;;;4995232;28;20763;-41
2022/07/03 04:06:21;;;;;;;7.77;5.07;;;;;;;;;;4995385;28;20441;-41
2022/07/03 04:08:47;;;;;;;9.53;4.77;;;;;;;;;;4993849;28;20596;-39
2022/07/03 04:11:14;;;;;;;8.93;5.00;;;;;;;;;;4997158;28;20390;-41
2022/07/03 04:13:40;;;;;;;7.87;4.57;;;;;;;;;;4996052;28;20496;-41
2022/07/03 04:16:06;;;;;;;8.50;5.13;;;;;;;;;;4996495;28;20216;-41
2022/07/03 04:18:32;;;;;;;7.10;5.10;;;;;;;;;;4995829;28;20501;-43
2022/07/03 04:20:58;;;;;;;9.47;5.33;;;;;;;;;;4996534;28;20845;-43
2022/07/03 04:23:24;;;;;;;8.43;4.87;;;;;;;;;;4990079;28;20222;-43
2022/07/03 04:25:50;;;;;;;6.70;5.03;;;;;;;;;;4995101;28;20636;-43
2022/07/03 04:28:16;;;;;;;7.13;5.30;;;;;;;;;;4996435;28;20681;-43
2022/07/03 04:30:42;;;;;;;12.67;6.23;;;;;;;;;;4997970;28;20287;-39
2022/07/03 04:33:09;;;;;;;8.33;5.57;;;;;;;;;;4994164;28;20165;-41
2022/07/03 04:35:35;;;;;;;11.70;6.20;;;;;;;;;;4994270;28;20212;-41
2022/07/03 04:38:01;;;;;;;11.67;6.40;;;;;;;;;;4996298;28;20185;-44
2022/07/03 04:40:27;;;;;;;14.77;7.93;;;;;;;;;;4990985;28;20396;-40
2022/07/03 04:42:53;;;;;;;14.87;7.63;;;;;;;;;;4996320;28;20726;-41
2022/07/03 04:45:19;;;;;;;12.17;7.43;;;;;;;;;;4996015;28;20574;-43
2022/07/03 04:47:45;;;;;;;11.10;7.33;;;;;;;;;;4994755;28;20172;-41
2022/07/03 04:50:11;;;;;;;13.53;9.00;;;;;;;;;;4993111;28;20169;-41
2022/07/03 04:52:37;;;;;;;18.10;9.67;;;;;;;;;;4992973;28;20172;-43
2022/07/03 04:55:03;;;;;;;10.97;7.53;;;;;;;;;;4993004;28;20207;-41
2022/07/03 04:57:30;;;;;;;13.13;8.40;;;;;;;;;;4993260;28;20173;-41
2022/07/03 04:59:56;;;;;;;14.03;8.13;;;;;;;;;;4996224;28;20342;-41
2022/07/03 05:02:22;;;;;;;11.87;8.20;;;;;;;;;;4994101;28;20419;-41
2022/07/03 05:04:48;;;;;;;12.83;8.17;;;;;;;;;;4994130;28;20496;-41
2022/07/03 05:07:14;;;;;;;10.70;8.03;;;;;;;;;;4993949;28;21298;-41
2022/07/03 05:09:40;;;;;;;14.07;7.30;;;;;;;;;;4992753;28;20513;-41
2022/07/03 05:12:06;;;;;;;10.10;8.30;;;;;;;;;;4990597;28;20173;-41
2022/07/03 05:14:33;;;;;;;14.43;7.40;;;;;;;;;;4996483;28;20192;-41
2022/07/03 05:16:59;;;;;;;13.70;7.67;;;;;;;;;;4995039;28;20205;-41
2022/07/03 05:19:25;;;;;;;11.37;7.77;;;;;;;;;;4995880;28;20180;-41
2022/07/03 05:21:51;;;;;;;11.33;6.57;;;;;;;;;;4994825;28;20180;-40
2022/07/03 05:24:17;;;;;;;11.47;7.20;;;;;;;;;;4994156;28;20822;-41
2022/07/03 05:26:43;;;;;;;9.37;7.50;;;;;;;;;;4995133;28;20262;-42
2022/07/03 05:29:09;;;;;;;16.90;8.63;;;;;;;;;;4997802;28;20792;-42
2022/07/03 05:31:36;;;;;;;16.57;8.47;;;;;;;;;;4995383;28;20169;-43
2022/07/03 05:34:02;;;;;;;13.67;7.40;;;;;;;;;;4991949;28;20351;-41
2022/07/03 05:36:28;;;;;;;11.33;7.63;;;;;;;;;;4993375;28;20628;-40
2022/07/03 05:41:39;;;;;;;11.97;7.70;;;;;;;;;;4993273;28;20621;-43
2022/07/03 05:44:05;;;;;;;14.10;7.97;;;;;;;;;;4994656;28;20474;-43
2022/07/03 05:46:31;;;;;;;11.17;8.33;;;;;;;;;;4993795;28;21074;-42
2022/07/03 05:48:57;;;;;;;9.70;6.80;;;;;;;;;;4992181;28;20523;-42
2022/07/03 05:51:23;;;;;;;10.80;7.13;;;;;;;;;;4989454;28;20168;-40
2022/07/03 05:53:49;;;;;;;9.70;6.67;;;;;;;;;;4996179;28;20579;-40
2022/07/03 05:56:15;;;;;;;14.27;8.50;;;;;;;;;;4994696;28;20483;-41
2022/07/03 05:58:41;;;;;;;10.47;7.20;;;;;;;;;;4993235;28;20415;-41
2022/07/03 06:01:07;;;;;;;11.77;6.87;;;;;;;;;;4994335;28;20270;-42
2022/07/03 06:03:34;;;;;;;11.17;6.67;;;;;;;;;;4996677;28;20211;-40
2022/07/03 06:06:00;;;;;;;10.00;6.97;;;;;;;;;;4993537;28;20329;-41
2022/07/03 06:08:26;;;;;;;10.73;6.53;;;;;;;;;;4993407;28;20988;-41
2022/07/03 06:10:52;;;;;;;9.77;6.83;;;;;;;;;;4993471;28;20168;-40
2022/07/03 06:13:18;;;;;;;9.00;6.80;;;;;;;;;;4994126;28;20582;-42
2022/07/03 06:15:44;;;;;;;11.37;6.80;;;;;;;;;;4995142;28;20406;-41
2022/07/03 06:18:11;;;;;;;11.13;7.00;;;;;;;;;;4998591;28;20605;-42
2022/07/03 06:20:37;;;;;;;11.47;6.67;;;;;;;;;;4995243;28;20638;-42
2022/07/03 06:23:03;;;;;;;7.67;6.10;;;;;;;;;;4991874;28;20522;-41
2022/07/03 06:25:29;;;;;;;11.53;6.50;;;;;;;;;;5007792;28;20752;-41
2022/07/03 06:27:55;;;;;;;11.23;7.03;;;;;;;;;;4995194;28;20548;-39
2022/07/03 06:30:21;;;;;;;14.60;6.80;;;;;;;;;;4996343;28;20173;-39
2022/07/03 06:32:47;;;;;;;9.97;6.27;;;;;;;;;;4997247;28;20181;-41
2022/07/03 06:35:13;;;;;;;9.90;5.80;;;;;;;;;;4997224;28;20657;-40
2022/07/03 06:37:39;;;;;;;12.13;5.73;;;;;;;;;;4999029;28;20172;-40
2022/07/03 06:40:06;;;;;;;8.77;5.70;;;;;;;;;;5000707;28;20718;-43
2022/07/03 06:42:32;;;;;;;10.23;6.23;;;;;;;;;;4999295;28;20624;-43
2022/07/03 06:44:58;;;;;;;8.70;5.57;;;;;;;;;;4994887;28;20632;-42
2022/07/03 06:47:24;;;;;;;9.13;4.77;;;;;;;;;;4997483;28;20177;-41
2022/07/03 06:49:50;;;;;;;9.80;5.20;;;;;;;;;;4997334;28;20177;-43
2022/07/03 06:52:16;;;;;;;10.70;5.80;;;;;;;;;;4997572;28;20684;-43
2022/07/03 06:54:43;;;;;;;10.30;6.03;;;;;;;;;;4998950;28;20347;-42
2022/07/03 06:57:10;;;;;;;13.07;5.50;;;;;;;;;;4997585;28;20734;-43
2022/07/03 06:59:36;;;;;;;9.17;5.60;;;;;;;;;;4993416;28;21619;-42
2022/07/03 07:02:02;;;;;;;10.27;5.50;;;;;;;;;;4997230;28;20192;-41
2022/07/03 07:04:28;;;;;;;9.40;4.90;;;;;;;;;;4994531;28;20403;-42
2022/07/03 07:06:55;;;;;;;11.53;4.60;;;;;;;;;;4994534;28;20177;-43
2022/07/03 07:09:21;;;;;;;7.70;4.83;;;;;;;;;;4996400;28;20960;-40
2022/07/03 07:11:47;;;;;;;9.67;4.70;;;;;;;;;;4998509;28;20173;-41
2022/07/03 07:14:13;;;;;;;11.00;4.80;;;;;;;;;;4996899;28;20177;-42
2022/07/03 07:16:39;;;;;;;9.20;5.07;;;;;;;;;;4994155;28;20947;-42
2022/07/03 07:19:05;;;;;;;7.53;4.50;;;;;;;;;;4998818;28;20180;-42
2022/07/03 07:21:31;;;;;;;7.17;4.47;;;;;;;;;;4993687;28;20502;-41
2022/07/03 07:23:57;;;;;;;6.30;4.23;;;;;;;;;;4995743;28;20200;-41
2022/07/03 07:26:23;;;;;;;8.13;4.10;;;;;;;;;;4991479;28;20539;-40
2022/07/03 07:28:49;;;;;;;9.43;4.50;;;;;;;;;;4994827;28;20228;-40
2022/07/03 07:31:15;;;;;;;13.17;4.43;;;;;;;;;;4995399;28;20187;-40
2022/07/03 07:33:44;;;;;;;9.83;4.60;;;;;;;;;;4997682;28;20323;-42
2022/07/03 07:36:10;;;;;;;8.47;5.03;;;;;;;;;;4997161;28;20547;-42
2022/07/03 07:38:36;;;;;;;7.83;4.30;;;;;;;;;;4996423;28;20184;-42
2022/07/03 07:41:02;;;;;;;11.80;5.10;;;;;;;;;;4994140;28;20537;-42
2022/07/03 07:43:29;;;;;;;8.03;4.67;;;;;;;;;;4996015;28;20625;-43
2022/07/03 07:45:55;;;;;;;7.93;4.33;;;;;;;;;;4997726;28;20693;-41
2022/07/03 07:48:21;;;;;;;11.47;4.80;;;;;;;;;;4995460;28;20177;-42
2022/07/03 07:50:49;;;;;;;9.17;4.70;;;;;;;;;;4994082;28;20291;-42
2022/07/03 07:53:15;;;;;;;10.53;5.03;;;;;;;;;;4997578;28;20171;-41
2022/07/03 07:55:41;;;;;;;9.77;4.63;;;;;;;;;;4999558;28;20675;-41
2022/07/03 07:58:08;;;;;;;7.37;4.50;;;;;;;;;;4994221;28;20331;-40
2022/07/03 08:00:34;;;;;;;10.63;4.70;;;;;;;;;;4993052;28;20621;-42
2022/07/03 08:05:45;;;;;;;9.20;4.27;;;;;;;;;;4991517;28;20231;-42
2022/07/03 08:08:13;;;;;;;10.17;5.20;;;;;;;;;;4993840;28;20177;-42
2022/07/03 08:10:46;;;;;;;11.77;4.67;;;;;;;;;;4993305;28;20181;-42
2022/07/03 08:13:13;;;;;;;9.00;4.97;;;;;;;;;;4996544;28;20216;-42
2022/07/03 08:15:39;;;;;;;7.73;4.27;;;;;;;;;;4993077;28;20211;-42
2022/07/03 08:18:06;;;;;;;8.03;3.93;;;;;;;;;;4995633;28;20185;-42
2022/07/03 08:20:32;;;;;;;12.33;4.67;;;;;;;;;;4996490;28;20279;-42
2022/07/03 08:22:58;;;;;;;10.90;4.43;;;;;;;;;;4993033;28;20582;-41
2022/07/03 08:25:25;;;;;;;9.93;4.13;;;;;;;;;;4991407;28;20295;-41
2022/07/03 08:27:51;;;;;;;8.47;4.00;;;;;;;;;;4994324;28;20315;-41
2022/07/03 08:30:17;;;;;;;9.70;4.37;;;;;;;;;;4996240;28;21023;-41
2022/07/03 08:32:46;;;;;;;7.67;4.53;;;;;;;;;;4993483;28;20185;-40
2022/07/03 08:35:13;;;;;;;7.70;4.73;;;;;;;;;;4993160;28;20834;-41
2022/07/03 08:37:40;;;;;;;7.73;4.70;;;;;;;;;;4995172;28;20292;-41
2022/07/03 08:40:07;;;;;;;10.70;4.67;;;;;;;;;;4994315;28;20555;-41
2022/07/03 08:42:35;;;;;;;7.93;4.83;;;;;;;;;;4991821;28;20781;-41
2022/07/03 08:45:02;;;;;;;7.23;4.63;;;;;;;;;;4990865;28;20609;-41
2022/07/03 08:47:30;;;;;;;9.33;4.50;;;;;;;;;;4992142;28;20525;-40
2022/07/03 08:49:56;;;;;;;12.60;4.70;;;;;;;;;;4991567;28;20266;-40
2022/07/03 08:52:23;;;;;;;11.53;4.57;;;;;;;;;;4994866;28;20181;-41
2022/07/03 08:54:50;;;;;;;10.03;4.43;;;;;;;;;;5024455;28;20251;-41
2022/07/03 08:57:17;;;;;;;7.43;4.57;;;;;;;;;;4994227;28;20181;-42
2022/07/03 08:59:45;;;;;;;12.97;4.50;;;;;;;;;;4994888;28;20525;-42
2022/07/03 09:02:12;;;;;;;7.63;4.77;;;;;;;;;;4995482;28;20208;-42
2022/07/03 09:04:39;;;;;;;9.70;4.73;;;;;;;;;;4993886;28;20197;-42
2022/07/03 09:07:07;;;;;;;8.83;4.20;;;;;;;;;;4993909;28;20247;-42
2022/07/03 09:09:34;;;;;;;12.60;4.60;;;;;;;;;;4998301;28;20185;-41
2022/07/03 09:12:00;;;;;;;7.70;4.27;;;;;;;;;;4995367;28;21102;-42
2022/07/03 09:14:26;;;;;;;10.60;4.13;;;;;;;;;;4995385;28;20290;-41
2022/07/03 09:16:52;;;;;;;14.17;4.83;;;;;;;;;;4995495;28;20243;-42
2022/07/03 09:19:37;;;;;;;8.40;4.07;;;;;;;;;;4993164;28;20266;-41
2022/07/03 09:22:04;;;;;;;9.33;4.40;;;;;;;;;;4988252;28;20186;-41
2022/07/03 09:24:33;;;;;;;7.77;4.13;;;;;;;;;;4992665;28;20206;-42
2022/07/03 09:26:59;;;;;;;8.73;4.40;;;;;;;;;;4992999;28;20211;-43
2022/07/03 09:29:25;;;;;;;9.80;4.77;;;;;;;;;;4993569;28;20393;-43
2022/07/03 09:31:55;;;;;;;12.60;3.90;;;;;;;;;;4994648;28;20169;-44
2022/07/03 09:34:26;;;;;;;6.40;4.13;;;;;;;;;;4989692;28;20646;-43
2022/07/03 09:36:52;;;;;;;10.17;5.17;;;;;;;;;;4987009;28;20680;-41
2022/07/03 09:39:19;;;;;;;4.83;3.70;;;;;;;;;;4994759;28;20451;-41
2022/07/03 09:42:04;;;;;;;5.10;3.43;;;;;;;;;;4991221;28;20589;-42
2022/07/03 09:44:34;;;;;;;8.30;4.20;;;;;;;;;;4992456;28;20205;-42
2022/07/03 09:47:06;;;;;;;7.37;3.87;;;;;;;;;;4994030;28;20173;-42
2022/07/03 09:49:49;;;;;;;54.40;48.17;;;;;;;;;;4994949;28;20492;-41
2022/07/03 09:52:30;;;;;;;7.40;4.43;;;;;;;;;;4996030;28;20177;-41
2022/07/03 09:54:57;;;;;;;9.87;5.10;;;;;;;;;;4991155;28;20295;-41
2022/07/03 09:57:25;;;;;;;5.60;3.70;;;;;;;;;;4990793;28;20322;-42
2022/07/03 10:00:08;;;;;;;8.00;3.63;;;;;;;;;;4996763;28;20339;-40
2022/07/03 10:02:34;;;;;;;13.87;8.73;;;;;;;;;;4997077;28;20173;-41
2022/07/03 10:05:12;;;;;;;8.57;5.07;;;;;;;;;;4992548;28;20434;-40
2022/07/03 10:07:55;;;;;;;8.47;3.80;;;;;;;;;;4992674;28;20411;-41
2022/07/03 10:10:22;;;;;;;6.70;3.90;;;;;;;;;;4995026;28;20176;-41
2022/07/03 10:12:52;;;;;;;9.93;4.33;;;;;;;;;;4993639;28;20179;-42
2022/07/03 10:15:19;;;;;;;6.60;3.63;;;;;;;;;;4993254;28;20773;-42
2022/07/03 10:17:49;;;;;;;8.97;3.80;;;;;;;;;;4994285;28;20196;-43
2022/07/03 10:20:17;;;;;;;8.27;4.03;;;;;;;;;;4994848;28;20485;-43
2022/07/03 10:22:46;;;;;;;8.20;3.20;;;;;;;;;;4993667;28;20383;-43
2022/07/03 10:25:14;;;;;;;6.47;3.80;;;;;;;;;;4997746;28;20948;-43
2022/07/03 10:27:40;;;;;;;8.77;3.73;;;;;;;;;;4996240;28;20176;-40
2022/07/03 10:30:06;;;;;;;9.23;3.87;;;;;;;;;;4993127;28;20609;-43
2022/07/03 10:32:38;;;;;;;9.67;3.57;;;;;;;;;;4989644;28;20976;-42
2022/07/03 10:35:05;;;;;;;7.90;3.70;;;;;;;;;;4996973;28;20514;-42
2022/07/03 10:37:39;;;;;;;7.73;3.40;;;;;;;;;;4994706;28;20200;-41
2022/07/03 10:46:05;;;;;;;7.33;3.40;;;;;;;;;;4995114;28;20231;-42
2022/07/03 10:48:49;;;;;;;9.47;3.60;;;;;;;;;;4992468;28;20614;-42
2022/07/03 10:51:15;;;;;;;9.40;4.23;;;;;;;;;;4993462;28;20553;-40
2022/07/03 10:53:41;;;;;;;6.87;3.43;;;;;;;;;;4996173;28;20170;-42
2022/07/03 10:56:08;;;;;;;6.43;3.33;;;;;;;;;;4994350;28;20237;-42
2022/07/03 10:58:54;;;;;;;8.10;3.30;;;;;;;;;;4992580;28;20173;-42
2022/07/03 11:01:29;;;;;;;9.57;3.40;;;;;;;;;;4991718;28;20704;-42
2022/07/03 11:04:01;;;;;;;8.77;3.27;;;;;;;;;;4995151;28;20709;-42
2022/07/03 11:19:12;;;;;;;7.03;3.40;;;;;;;;;;5081870;27;21293;-41
2022/07/03 11:21:42;;;;;;;4.20;2.83;;;;;;;;;;5067444;27;20190;-41
2022/07/03 11:24:15;;;;;;;7.63;3.53;;;;;;;;;;5068287;28;20214;-41
2022/07/03 11:26:41;;;;;;;9.83;3.23;;;;;;;;;;5068709;28;20641;-41
2022/07/03 11:29:07;;;;;;;6.47;3.50;;;;;;;;;;5070994;28;20212;-41
2022/07/03 11:31:33;;;;;;;6.43;3.47;;;;;;;;;;5071056;27;20768;-41
2022/07/03 11:34:00;;;;;;;9.87;4.10;;;;;;;;;;5064649;28;20675;-41
2022/07/03 11:36:34;;;;;;;13.13;3.53;;;;;;;;;;5066924;28;20349;-41
2022/07/03 11:39:00;;;;;;;7.73;3.50;;;;;;;;;;5068013;28;20684;-41
2022/07/03 11:41:28;;;;;;;9.77;4.13;;;;;;;;;;5066921;28;20183;-41
2022/07/03 11:43:55;;;;;;;8.93;3.40;;;;;;;;;;5066975;28;20682;-41
2022/07/03 11:46:22;;;;;;;8.60;3.70;;;;;;;;;;5068447;28;20174;-41
2022/07/03 11:48:48;;;;;;;4.23;3.07;;;;;;;;;;5069170;28;20170;-41
2022/07/03 11:51:15;;;;;;;6.00;3.13;;;;;;;;;;5067651;28;20420;-41
2022/07/03 11:53:41;;;;;;;6.10;3.10;;;;;;;;;;5061900;28;20205;-41
2022/07/03 11:56:12;;;;;;;6.90;3.30;;;;;;;;;;5067019;28;20179;-41
2022/07/03 11:58:45;;;;;;;7.43;3.40;;;;;;;;;;5063805;28;20289;-41
2022/07/03 12:01:26;;;;;;;7.00;2.93;;;;;;;;;;5065605;28;20179;-40
2022/07/03 12:03:52;;;;;;;8.67;3.30;;;;;;;;;;5062283;28;20428;-41
2022/07/03 12:06:19;;;;;;;7.30;3.40;;;;;;;;;;5066545;28;20171;-41
2022/07/03 12:08:46;;;;;;;6.80;3.70;;;;;;;;;;5067495;28;20178;-40
2022/07/03 12:11:13;;;;;;;6.67;3.37;;;;;;;;;;5066186;28;20174;-41
2022/07/03 12:13:39;;;;;;;5.30;2.97;;;;;;;;;;5065152;28;20707;-41
2022/07/03 12:16:15;;;;;;;6.87;3.33;;;;;;;;;;5065316;28;20657;-41
2022/07/03 12:18:52;;;;;;;6.70;3.20;;;;;;;;;;5055840;28;20207;-41
2022/07/03 12:21:22;;;;;;;7.93;3.30;;;;;;;;;;5050696;28;20204;-41
2022/07/03 12:23:48;;;;;;;7.80;3.47;;;;;;;;;;5051992;28;20180;-41
2022/07/03 12:26:15;;;;;;;10.27;3.47;;;;;;;;;;5052645;28;20366;-41
2022/07/03 12:28:41;;;;;;;7.67;3.93;;;;;;;;;;5051420;28;20183;-41
2022/07/03 12:31:07;;;;;;;5.40;3.10;;;;;;;;;;5054427;28;20183;-41
2022/07/03 12:33:35;;;;;;;7.63;3.23;;;;;;;;;;5051008;28;20196;-41
2022/07/03 12:36:05;;;;;;;6.40;3.50;;;;;;;;;;5051800;28;20188;-41
2022/07/03 12:38:33;;;;;;;7.63;3.10;;;;;;;;;;5053653;28;20210;-41
2022/07/03 12:41:09;;;;;;;9.57;3.47;;;;;;;;;;5051444;28;20176;-41
2022/07/03 12:43:41;;;;;;;9.17;3.40;;;;;;;;;;5048871;28;20479;-41
2022/07/03 12:46:26;;;;;;;6.57;3.00;;;;;;;;;;5046867;28;20498;-41
2022/07/03 12:48:57;;;;;;;6.47;3.33;;;;;;;;;;5053698;28;20653;-40
2022/07/03 12:51:42;;;;;;;4.43;2.87;;;;;;;;;;5051943;28;20876;-41
2022/07/03 12:54:09;;;;;;;7.87;3.00;;;;;;;;;;5051637;28;20188;-41
2022/07/03 12:56:35;;;;;;;5.53;3.00;;;;;;;;;;5051455;28;20324;-41
2022/07/03 12:59:17;;;;;;;6.30;3.27;;;;;;;;;;5048249;28;20847;-39
2022/07/03 13:01:44;;;;;;;5.27;3.20;;;;;;;;;;5054159;28;20667;-41
2022/07/03 13:04:17;;;;;;;4.90;3.03;;;;;;;;;;5053090;28;20937;-40
2022/07/03 13:06:45;;;;;;;5.32;3.28;;;;;;;;;;5048852;28;20179;-41
2022/07/03 13:09:11;;;;;;;6.32;3.25;;;;;;;;;;5051336;28;20193;-41
2022/07/03 13:11:41;;;;;;;8.23;3.10;;;;;;;;;;5052946;28;20302;-41
2022/07/03 13:14:12;;;;;;;7.60;3.30;;;;;;;;;;5053533;28;20350;-40
2022/07/03 13:16:41;;;;;;;7.63;3.40;;;;;;;;;;5050312;28;20248;-41
2022/07/03 13:19:08;;;;;;;3.20;2.90;;;;;;;;;;5047210;28;20583;-42
2022/07/03 13:21:35;;;;;;;7.03;3.20;;;;;;;;;;5053296;28;20566;-42
2022/07/03 13:24:01;;;;;;;8.85;3.00;;;;;;;;;;5055458;28;20327;-42
2022/07/03 13:26:27;;;;;;;6.90;2.92;;;;;;;;;;5050577;28;20390;-42
2022/07/03 13:28:53;;;;;;;9.13;3.60;;;;;;;;;;5055074;28;20637;-41
2022/07/03 13:31:19;;;;;;;4.68;3.17;;;;;;;;;;5061789;27;20269;-42
2022/07/03 13:33:45;;;;;;;4.40;2.90;;;;;;;;;;5051322;28;20183;-42
2022/07/03 13:36:12;;;;;;;7.53;3.55;;;;;;;;;;5053492;28;20578;-42
2022/07/03 13:38:38;;;;;;;9.15;3.15;;;;;;;;;;5045446;28;20207;-42
2022/07/03 13:41:04;;;;;;;5.45;3.30;;;;;;;;;;5051241;28;20167;-42
2022/07/03 13:43:30;;;;;;;4.70;3.10;;;;;;;;;;5051847;28;20191;-42
2022/07/03 13:45:56;;;;;;;5.38;3.00;;;;;;;;;;5052870;28;20271;-42
2022/07/03 13:48:22;;;;;;;4.97;2.78;;;;;;;;;;5050954;28;20270;-42
2022/07/03 13:50:48;;;;;;;5.78;3.60;;;;;;;;;;5045897;28;20400;-42
2022/07/03 13:53:14;;;;;;;7.05;3.10;;;;;;;;;;5053153;28;20183;-42
2022/07/03 13:55:40;;;;;;;6.45;3.10;;;;;;;;;;5057395;28;20717;-42
2022/07/03 13:58:07;;;;;;;6.05;3.00;;;;;;;;;;5053925;28;20225;-42
2022/07/03 14:00:34;;;;;;;6.70;3.30;;;;;;;;;;5050348;28;20256;-42
2022/07/03 14:03:00;;;;;;;5.30;2.90;;;;;;;;;;5054537;28;20766;-42
2022/07/03 14:05:26;;;;;;;5.38;2.72;;;;;;;;;;5053943;28;20409;-42
2022/07/03 14:07:54;;;;;;;5.90;3.28;;;;;;;;;;5053073;28;20456;-41
2022/07/03 14:10:21;;;;;;;6.78;3.40;;;;;;;;;;5049265;28;20175;-42
2022/07/03 14:12:48;;;;;;;8.07;3.03;;;;;;;;;;5053402;28;20200;-41
2022/07/03 14:15:14;;;;;;;5.13;2.67;;;;;;;;;;5054222;28;20190;-42
2022/07/03 14:17:43;;;;;;;6.18;3.30;;;;;;;;;;5052186;28;20389;-42
2022/07/03 14:20:09;;;;;;;4.15;2.60;;;;;;;;;;5049107;28;20850;-42
2022/07/03 14:22:35;;;;;;;7.32;2.72;;;;;;;;;;5054714;28;20529;-42
2022/07/03 14:25:02;;;;;;;5.45;2.67;;;;;;;;;;5052709;28;20183;-42
2022/07/03 14:32:58;;;;;;;5.47;2.75;;;;;;;;;;5052704;28;20233;-42
2022/07/03 14:35:24;;;;;;;6.03;3.10;;;;;;;;;;5054272;28;20179;-42
2022/07/03 14:37:50;;;;;;;6.82;3.28;;;;;;;;;;5050133;28;20926;-42
2022/07/03 14:40:16;;;;;;;6.25;3.00;;;;;;;;;;5052462;28;20608;-42
2022/07/03 14:42:42;;;;;;;6.53;3.00;;;;;;;;;;5052093;28;20640;-41
2022/07/03 14:45:09;;;;;;;9.50;2.90;;;;;;;;;;5051954;28;20594;-42
2022/07/03 14:47:35;;;;;;;4.97;3.03;;;;;;;;;;5051563;28;20171;-40
2022/07/03 14:50:01;;;;;;;6.50;2.78;;;;;;;;;;5049972;28;20459;-42
2022/07/03 14:52:28;;;;;;;5.25;2.78;;;;;;;;;;5053670;28;20167;-41
2022/07/03 14:54:56;;;;;;;5.00;2.75;;;;;;;;;;5069140;27;20627;-42
2022/07/03 14:57:38;;;;;;;5.50;2.90;;;;;;;;;;5053000;28;20697;-42
2022/07/03 15:00:04;;;;;;;3.25;2.70;;;;;;;;;;5042001;28;20171;-41
2022/07/03 15:02:40;;;;;;;8.45;2.90;;;;;;;;;;5050513;28;20502;-42
2022/07/03 15:05:06;;;;;;;7.60;2.78;;;;;;;;;;5052718;28;20166;-41
2022/07/03 15:07:35;;;;;;;6.05;2.90;;;;;;;;;;5048460;28;20183;-42
2022/07/03 15:10:05;;;;;;;10.65;3.00;;;;;;;;;;5047039;28;20225;-41
2022/07/03 15:12:36;;;;;;;7.30;2.60;;;;;;;;;;5043151;28;20178;-41
2022/07/03 15:15:03;;;;;;;5.15;2.50;;;;;;;;;;5049244;28;20191;-41
2022/07/03 15:17:29;;;;;;;3.28;2.70;;;;;;;;;;5046569;28;20208;-42